createdAt,value
2017-08-24T00:01:09.181Z,16.85
2017-08-24T00:02:18.717Z,16.88
2017-08-24T00:03:28.896Z,16.86
2017-08-24T00:04:37.785Z,16.88
2017-08-24T00:05:47.335Z,16.83
2017-08-24T00:06:56.869Z,16.89
2017-08-24T00:08:06.408Z,16.89
2017-08-24T00:09:15.616Z,16.94
2017-08-24T00:10:25.624Z,16.81
2017-08-24T00:11:34.834Z,16.75
2017-08-24T00:12:44.040Z,16.73
2017-08-24T00:13:53.900Z,16.78
2017-08-24T00:15:03.435Z,16.7
2017-08-24T00:16:13.013Z,16.71
2017-08-24T00:17:22.551Z,16.7
2017-08-24T00:18:32.082Z,16.67
2017-08-24T00:19:41.617Z,16.68
2017-08-24T00:20:51.146Z,16.68
2017-08-24T00:22:00.648Z,16.66
2017-08-24T00:23:10.179Z,16.66
2017-08-24T00:24:19.711Z,16.64
2017-08-24T00:25:28.922Z,16.63
2017-08-24T00:26:38.771Z,16.66
2017-08-24T00:27:48.671Z,16.66
2017-08-24T00:28:57.884Z,16.64
2017-08-24T00:30:08.061Z,16.52
2017-08-24T00:31:17.913Z,16.61
2017-08-24T00:32:27.767Z,16.58
2017-08-24T00:33:37.550Z,16.53
2017-08-24T00:34:47.078Z,16.57
2017-08-24T00:35:56.928Z,16.63
2017-08-24T00:37:06.781Z,16.5
2017-08-24T00:38:15.663Z,16.46
2017-08-24T00:39:25.030Z,16.52
2017-08-24T00:40:34.892Z,16.45
2017-08-24T00:41:44.099Z,16.5
2017-08-24T00:42:53.303Z,16.5
2017-08-24T00:44:02.511Z,16.48
2017-08-24T00:45:11.868Z,16.48
2017-08-24T00:46:21.393Z,16.5
2017-08-24T00:47:30.597Z,16.53
2017-08-24T00:48:40.124Z,16.49
2017-08-24T00:49:49.931Z,16.45
2017-08-24T00:51:00.084Z,16.5
2017-08-24T00:52:09.613Z,16.41
2017-08-24T00:53:18.819Z,16.35
2017-08-24T00:54:28.682Z,16.48
2017-08-24T00:55:38.859Z,16.46
2017-08-24T00:56:48.699Z,16.42
2017-08-24T00:57:58.239Z,16.43
2017-08-24T00:59:07.769Z,16.38
2017-08-24T01:00:16.971Z,16.33
2017-08-24T01:01:26.826Z,16.33
2017-08-24T01:02:37.004Z,16.35
2017-08-24T01:03:46.861Z,16.31
2017-08-24T01:04:56.099Z,16.25
2017-08-24T01:06:05.312Z,16.27
2017-08-24T01:07:14.836Z,16.3
2017-08-24T01:08:24.027Z,16.25
2017-08-24T01:09:33.563Z,16.27
2017-08-24T01:10:43.434Z,16.23
2017-08-24T01:11:52.640Z,16.27
2017-08-24T01:13:02.169Z,16.23
2017-08-24T01:14:12.342Z,16.23
2017-08-24T01:15:21.228Z,16.25
2017-08-24T01:16:30.111Z,16.23
2017-08-24T01:17:39.320Z,16.2
2017-08-24T01:18:48.208Z,16.23
2017-08-24T01:19:57.414Z,16.2
2017-08-24T01:21:06.620Z,16.21
2017-08-24T01:22:16.150Z,16.24
2017-08-24T01:23:26.001Z,16.25
2017-08-24T01:24:35.527Z,16.12
2017-08-24T01:25:44.784Z,16.24
2017-08-24T01:26:54.315Z,16.25
2017-08-24T01:28:03.879Z,16.27
2017-08-24T01:29:13.415Z,16.25
2017-08-24T01:30:22.624Z,16.23
2017-08-24T01:31:31.880Z,16.23
2017-08-24T01:32:41.420Z,16.25
2017-08-24T01:33:50.955Z,16.21
2017-08-24T01:35:00.484Z,16.09
2017-08-24T01:36:10.338Z,16.12
2017-08-24T01:37:19.927Z,16.14
2017-08-24T01:38:29.777Z,16.21
2017-08-24T01:39:39.304Z,16.14
2017-08-24T01:40:48.550Z,16.12
2017-08-24T01:41:58.073Z,16.09
2017-08-24T01:43:07.655Z,16.08
2017-08-24T01:44:17.187Z,16.05
2017-08-24T01:45:27.040Z,16.07
2017-08-24T01:46:36.901Z,16.08
2017-08-24T01:47:46.427Z,15.97
2017-08-24T01:48:56.332Z,15.94
2017-08-24T01:50:05.541Z,16.01
2017-08-24T01:51:15.066Z,16.02
2017-08-24T01:52:24.591Z,16.01
2017-08-24T01:53:33.807Z,16
2017-08-24T01:54:43.486Z,16.07
2017-08-24T01:55:52.371Z,15.93
2017-08-24T01:57:01.906Z,15.97
2017-08-24T01:58:11.765Z,15.97
2017-08-24T01:59:21.303Z,16.05
2017-08-24T02:00:30.980Z,15.94
2017-08-24T02:01:40.832Z,15.97
2017-08-24T02:02:50.693Z,15.97
2017-08-24T02:04:00.869Z,15.97
2017-08-24T02:05:10.404Z,15.94
2017-08-24T02:06:20.562Z,15.92
2017-08-24T02:07:30.735Z,15.86
2017-08-24T02:08:39.621Z,15.93
2017-08-24T02:09:49.155Z,15.96
2017-08-24T02:10:58.677Z,15.89
2017-08-24T02:12:08.034Z,15.87
2017-08-24T02:13:18.240Z,15.87
2017-08-24T02:14:28.096Z,15.82
2017-08-24T02:15:37.627Z,15.84
2017-08-24T02:16:46.543Z,15.83
2017-08-24T02:17:56.552Z,15.82
2017-08-24T02:19:05.761Z,15.78
2017-08-24T02:20:15.294Z,15.76
2017-08-24T02:21:24.822Z,15.78
2017-08-24T02:22:34.026Z,15.76
2017-08-24T02:23:43.707Z,15.78
2017-08-24T02:24:53.235Z,15.76
2017-08-24T02:26:02.451Z,15.78
2017-08-24T02:27:12.307Z,15.86
2017-08-24T02:28:21.517Z,15.76
2017-08-24T02:29:31.419Z,15.83
2017-08-24T02:30:40.952Z,15.78
2017-08-24T02:31:49.839Z,15.83
2017-08-24T02:32:59.366Z,15.76
2017-08-24T02:34:09.220Z,15.78
2017-08-24T02:35:19.091Z,15.78
2017-08-24T02:36:29.276Z,15.8
2017-08-24T02:37:39.132Z,15.75
2017-08-24T02:38:48.339Z,15.83
2017-08-24T02:39:57.553Z,15.83
2017-08-24T02:41:08.215Z,15.78
2017-08-24T02:42:17.423Z,15.78
2017-08-24T02:43:27.611Z,15.78
2017-08-24T02:44:37.142Z,15.69
2017-08-24T02:45:47.317Z,15.67
2017-08-24T02:46:56.906Z,15.65
2017-08-24T02:48:06.128Z,15.68
2017-08-24T02:49:15.978Z,15.75
2017-08-24T02:50:25.509Z,15.67
2017-08-24T02:51:35.355Z,15.68
2017-08-24T02:52:45.362Z,15.69
2017-08-24T02:53:54.886Z,15.68
2017-08-24T02:55:04.094Z,15.8
2017-08-24T02:56:14.010Z,15.72
2017-08-24T02:57:23.535Z,15.68
2017-08-24T02:58:32.570Z,15.67
2017-08-24T02:59:42.140Z,15.71
2017-08-24T03:00:51.673Z,15.76
2017-08-24T03:02:01.524Z,15.67
2017-08-24T03:03:11.055Z,15.75
2017-08-24T03:04:20.314Z,15.69
2017-08-24T03:05:29.522Z,15.71
2017-08-24T03:06:39.373Z,15.65
2017-08-24T03:07:49.232Z,15.69
2017-08-24T03:08:58.437Z,15.72
2017-08-24T03:10:08.121Z,15.67
2017-08-24T03:11:17.000Z,15.78
2017-08-24T03:12:26.532Z,15.67
2017-08-24T03:13:36.064Z,15.62
2017-08-24T03:14:45.912Z,15.69
2017-08-24T03:15:55.116Z,15.68
2017-08-24T03:17:04.969Z,15.6
2017-08-24T03:18:14.819Z,15.72
2017-08-24T03:19:24.023Z,15.69
2017-08-24T03:20:33.566Z,15.69
2017-08-24T03:21:43.247Z,15.69
2017-08-24T03:22:52.773Z,15.67
2017-08-24T03:24:02.306Z,15.71
2017-08-24T03:25:11.836Z,15.67
2017-08-24T03:26:21.045Z,15.78
2017-08-24T03:27:29.976Z,15.65
2017-08-24T03:28:39.828Z,15.67
2017-08-24T03:29:49.033Z,15.74
2017-08-24T03:30:58.567Z,15.64
2017-08-24T03:32:08.437Z,15.65
2017-08-24T03:33:18.291Z,15.68
2017-08-24T03:34:27.188Z,15.68
2017-08-24T03:35:36.715Z,15.65
2017-08-24T03:36:46.245Z,15.68
2017-08-24T03:37:55.448Z,15.67
2017-08-24T03:39:05.706Z,15.68
2017-08-24T03:40:14.914Z,15.67
2017-08-24T03:41:24.765Z,15.68
2017-08-24T03:42:33.648Z,15.62
2017-08-24T03:43:42.855Z,15.64
2017-08-24T03:44:53.037Z,15.64
2017-08-24T03:46:02.576Z,15.64
2017-08-24T03:47:11.784Z,15.65
2017-08-24T03:48:20.991Z,15.67
2017-08-24T03:49:30.845Z,15.65
2017-08-24T03:50:40.429Z,15.69
2017-08-24T03:51:49.637Z,15.65
2017-08-24T03:52:59.166Z,15.68
2017-08-24T03:54:09.024Z,15.59
2017-08-24T03:55:18.229Z,15.6
2017-08-24T03:56:27.585Z,15.59
2017-08-24T03:57:36.796Z,15.62
2017-08-24T03:58:46.003Z,15.64
2017-08-24T03:59:55.528Z,15.57
2017-08-24T04:01:05.058Z,15.62
2017-08-24T04:02:14.911Z,15.62
2017-08-24T04:03:24.124Z,15.6
2017-08-24T04:04:33.651Z,15.54
2017-08-24T04:05:43.826Z,15.59
2017-08-24T04:06:53.356Z,15.56
2017-08-24T04:08:03.518Z,15.5
2017-08-24T04:09:13.372Z,15.49
2017-08-24T04:10:22.582Z,15.51
2017-08-24T04:11:31.794Z,15.44
2017-08-24T04:12:41.330Z,15.51
2017-08-24T04:13:51.279Z,15.43
2017-08-24T04:15:00.487Z,15.44
2017-08-24T04:16:10.347Z,15.36
2017-08-24T04:17:19.551Z,15.35
2017-08-24T04:18:28.754Z,15.43
2017-08-24T04:19:38.334Z,15.34
2017-08-24T04:20:47.539Z,15.29
2017-08-24T04:21:56.421Z,15.27
2017-08-24T04:23:05.954Z,15.25
2017-08-24T04:24:15.803Z,15.2
2017-08-24T04:25:25.064Z,15.09
2017-08-24T04:26:34.268Z,15.23
2017-08-24T04:27:43.799Z,15.13
2017-08-24T04:28:53.332Z,15.17
2017-08-24T04:30:02.864Z,15.1
2017-08-24T04:31:12.156Z,15.09
2017-08-24T04:32:21.359Z,15.2
2017-08-24T04:33:30.565Z,15.09
2017-08-24T04:34:40.102Z,15.16
2017-08-24T04:35:49.309Z,15.16
2017-08-24T04:36:58.987Z,15.1
2017-08-24T04:38:08.208Z,15.09
2017-08-24T04:39:17.411Z,15.11
2017-08-24T04:40:27.261Z,15.14
2017-08-24T04:41:37.114Z,15.16
2017-08-24T04:42:47.403Z,15.16
2017-08-24T04:43:56.933Z,15.11
2017-08-24T04:45:06.501Z,15.13
2017-08-24T04:46:16.029Z,15.14
2017-08-24T04:47:24.911Z,15.14
2017-08-24T04:48:34.541Z,15.14
2017-08-24T04:49:44.824Z,15.1
2017-08-24T04:50:53.703Z,15.21
2017-08-24T04:52:02.908Z,15.27
2017-08-24T04:53:12.120Z,15.16
2017-08-24T04:54:21.580Z,15.19
2017-08-24T04:55:31.121Z,15.21
2017-08-24T04:56:40.648Z,15.17
2017-08-24T04:57:49.528Z,15.27
2017-08-24T04:58:58.732Z,15.19
2017-08-24T05:00:08.020Z,15.14
2017-08-24T05:01:17.562Z,15.21
2017-08-24T05:02:27.093Z,15.25
2017-08-24T05:03:36.622Z,15.16
2017-08-24T05:04:46.225Z,15.23
2017-08-24T05:05:55.413Z,15.28
2017-08-24T05:07:04.948Z,15.27
2017-08-24T05:08:14.814Z,15.27
2017-08-24T05:09:24.666Z,15.28
2017-08-24T05:10:34.220Z,15.25
2017-08-24T05:11:43.811Z,15.28
2017-08-24T05:12:53.023Z,15.29
2017-08-24T05:14:03.204Z,15.27
2017-08-24T05:15:12.409Z,15.28
2017-08-24T05:16:22.598Z,15.28
2017-08-24T05:17:32.505Z,15.25
2017-08-24T05:18:41.391Z,15.27
2017-08-24T05:19:51.251Z,15.32
2017-08-24T05:21:00.482Z,15.31
2017-08-24T05:22:09.369Z,15.27
2017-08-24T05:23:19.383Z,15.29
2017-08-24T05:24:28.909Z,15.25
2017-08-24T05:25:38.438Z,15.41
2017-08-24T05:26:47.648Z,15.43
2017-08-24T05:27:56.533Z,15.56
2017-08-24T05:29:05.626Z,15.51
2017-08-24T05:30:14.831Z,15.49
2017-08-24T05:31:24.685Z,15.54
2017-08-24T05:32:34.542Z,15.46
2017-08-24T05:33:44.723Z,15.51
2017-08-24T05:34:54.413Z,15.49
2017-08-24T05:36:03.941Z,15.47
2017-08-24T05:37:13.473Z,15.56
2017-08-24T05:38:22.678Z,15.53
2017-08-24T05:39:32.534Z,15.51
2017-08-24T05:40:42.540Z,15.56
2017-08-24T05:41:52.394Z,15.54
2017-08-24T05:43:01.613Z,15.59
2017-08-24T05:44:11.142Z,15.64
2017-08-24T05:45:20.674Z,15.64
2017-08-24T05:46:30.266Z,15.59
2017-08-24T05:47:39.799Z,15.64
2017-08-24T05:48:49.338Z,15.72
2017-08-24T05:49:58.226Z,15.64
2017-08-24T05:51:08.083Z,15.71
2017-08-24T05:52:17.937Z,15.65
2017-08-24T05:53:27.785Z,15.68
2017-08-24T05:54:36.998Z,15.83
2017-08-24T05:55:46.210Z,15.76
2017-08-24T05:56:55.740Z,15.89
2017-08-24T05:58:05.050Z,15.9
2017-08-24T05:59:14.905Z,15.87
2017-08-24T06:00:24.135Z,15.9
2017-08-24T06:01:33.681Z,15.87
2017-08-24T06:02:43.533Z,15.96
2017-08-24T06:03:53.042Z,15.96
2017-08-24T06:05:02.583Z,15.9
2017-08-24T06:06:11.462Z,15.89
2017-08-24T06:07:20.997Z,15.94
2017-08-24T06:08:30.533Z,15.97
2017-08-24T06:09:40.542Z,16.02
2017-08-24T06:10:50.078Z,16.08
2017-08-24T06:11:59.608Z,16.05
2017-08-24T06:13:09.789Z,16.11
2017-08-24T06:14:19.323Z,16.15
2017-08-24T06:15:28.683Z,16.24
2017-08-24T06:16:37.892Z,16.23
2017-08-24T06:17:47.423Z,16.31
2017-08-24T06:18:56.953Z,16.34
2017-08-24T06:20:06.488Z,16.38
2017-08-24T06:21:16.139Z,16.43
2017-08-24T06:22:25.991Z,16.45
2017-08-24T06:23:35.212Z,16.46
2017-08-24T06:24:44.422Z,16.48
2017-08-24T06:25:54.279Z,16.48
2017-08-24T06:27:03.687Z,16.5
2017-08-24T06:28:12.898Z,16.52
2017-08-24T06:29:22.106Z,16.73
2017-08-24T06:30:31.317Z,16.68
2017-08-24T06:31:40.207Z,16.68
2017-08-24T06:32:50.367Z,16.7
2017-08-24T06:33:59.896Z,16.75
2017-08-24T06:35:10.087Z,16.7
2017-08-24T06:36:19.297Z,16.83
2017-08-24T06:37:28.187Z,16.85
2017-08-24T06:38:37.642Z,16.81
2017-08-24T06:39:46.859Z,17
2017-08-24T06:40:56.064Z,16.93
2017-08-24T06:42:04.947Z,17
2017-08-24T06:43:14.480Z,16.98
2017-08-24T06:44:24.115Z,16.96
2017-08-24T06:45:33.969Z,17.03
2017-08-24T06:46:43.831Z,17.06
2017-08-24T06:47:53.042Z,17.14
2017-08-24T06:49:02.903Z,17.04
2017-08-24T06:50:12.124Z,17.08
2017-08-24T06:51:21.670Z,17.12
2017-08-24T06:52:30.894Z,17.08
2017-08-24T06:53:40.424Z,17.19
2017-08-24T06:54:50.291Z,17.26
2017-08-24T06:55:59.976Z,17.3
2017-08-24T06:57:09.506Z,17.34
2017-08-24T06:58:19.042Z,17.34
2017-08-24T06:59:28.580Z,17.48
2017-08-24T07:00:38.112Z,17.48
2017-08-24T07:01:47.471Z,17.51
2017-08-24T07:02:57.330Z,17.56
2017-08-24T07:04:07.516Z,17.55
2017-08-24T07:05:17.380Z,17.64
2017-08-24T07:06:26.914Z,17.75
2017-08-24T07:07:36.284Z,17.72
2017-08-24T07:08:45.818Z,17.87
2017-08-24T07:09:54.708Z,17.81
2017-08-24T07:11:04.891Z,17.95
2017-08-24T07:12:14.746Z,17.96
2017-08-24T07:13:24.430Z,17.97
2017-08-24T07:14:33.320Z,18.05
2017-08-24T07:15:42.525Z,18.11
2017-08-24T07:16:51.415Z,18.18
2017-08-24T07:18:00.950Z,18.29
2017-08-24T07:19:10.308Z,18.26
2017-08-24T07:20:20.171Z,18.25
2017-08-24T07:21:29.379Z,18.15
2017-08-24T07:22:38.916Z,18.11
2017-08-24T07:23:48.125Z,18.26
2017-08-24T07:24:57.389Z,18.23
2017-08-24T07:26:07.253Z,18.29
2017-08-24T07:27:16.786Z,18.3
2017-08-24T07:28:27.301Z,18.36
2017-08-24T07:29:36.512Z,18.47
2017-08-24T07:30:46.679Z,18.45
2017-08-24T07:31:56.219Z,18.5
2017-08-24T07:33:06.415Z,18.45
2017-08-24T07:34:16.269Z,18.62
2017-08-24T07:35:25.490Z,18.6
2017-08-24T07:36:34.749Z,18.65
2017-08-24T07:37:44.284Z,18.54
2017-08-24T07:38:54.469Z,18.72
2017-08-24T07:40:04.325Z,18.87
2017-08-24T07:41:13.911Z,18.88
2017-08-24T07:42:24.493Z,18.92
2017-08-24T07:43:34.026Z,18.92
2017-08-24T07:44:43.566Z,18.91
2017-08-24T07:45:53.748Z,18.95
2017-08-24T07:47:03.282Z,18.88
2017-08-24T07:48:12.865Z,18.9
2017-08-24T07:49:22.401Z,18.99
2017-08-24T07:50:31.948Z,19.07
2017-08-24T07:51:41.480Z,19.13
2017-08-24T07:52:51.354Z,19.08
2017-08-24T07:54:01.036Z,19.08
2017-08-24T07:55:10.243Z,19.08
2017-08-24T07:56:19.781Z,19.19
2017-08-24T07:57:29.316Z,19.06
2017-08-24T07:58:38.530Z,19.04
2017-08-24T07:59:48.263Z,19.25
2017-08-24T08:00:57.475Z,19.21
2017-08-24T08:02:06.685Z,19.23
2017-08-24T08:03:15.896Z,19.19
2017-08-24T08:04:25.116Z,19.26
2017-08-24T08:05:34.473Z,19.18
2017-08-24T08:06:44.335Z,19.4
2017-08-24T08:07:53.872Z,19.28
2017-08-24T08:09:03.406Z,19.33
2017-08-24T08:10:12.964Z,19.36
2017-08-24T08:11:23.084Z,19.32
2017-08-24T08:12:32.950Z,19.48
2017-08-24T08:13:41.843Z,19.41
2017-08-24T08:14:51.380Z,19.47
2017-08-24T08:16:00.917Z,19.5
2017-08-24T08:17:10.281Z,19.58
2017-08-24T08:18:19.172Z,19.68
2017-08-24T08:19:28.398Z,19.65
2017-08-24T08:20:37.928Z,19.68
2017-08-24T08:21:47.142Z,19.59
2017-08-24T08:22:56.353Z,19.68
2017-08-24T08:24:05.886Z,19.62
2017-08-24T08:25:15.101Z,19.74
2017-08-24T08:26:23.996Z,19.84
2017-08-24T08:27:33.532Z,19.8
2017-08-24T08:28:42.849Z,19.68
2017-08-24T08:29:51.738Z,19.71
2017-08-24T08:31:00.948Z,19.68
2017-08-24T08:32:10.163Z,19.81
2017-08-24T08:33:19.698Z,19.65
2017-08-24T08:34:29.555Z,19.63
2017-08-24T08:35:39.143Z,19.74
2017-08-24T08:36:48.032Z,19.71
2017-08-24T08:37:57.896Z,19.76
2017-08-24T08:39:07.432Z,19.84
2017-08-24T08:40:17.436Z,19.91
2017-08-24T08:41:26.974Z,19.91
2017-08-24T08:42:36.515Z,19.94
2017-08-24T08:43:46.033Z,19.96
2017-08-24T08:44:54.882Z,19.98
2017-08-24T08:46:03.733Z,20.03
2017-08-24T08:47:12.586Z,20.11
2017-08-24T08:48:21.437Z,20.03
2017-08-24T08:49:30.288Z,20.02
2017-08-24T08:50:39.151Z,20.02
2017-08-24T08:51:48.490Z,20.05
2017-08-24T08:52:57.340Z,20.06
2017-08-24T08:54:06.190Z,19.98
2017-08-24T08:55:15.056Z,19.99
2017-08-24T08:56:23.903Z,20.06
2017-08-24T08:57:32.805Z,20.1
2017-08-24T08:58:41.656Z,20.13
2017-08-24T08:59:50.841Z,20.11
2017-08-24T09:00:59.692Z,20.24
2017-08-24T09:02:08.543Z,20.13
2017-08-24T09:03:17.543Z,20.28
2017-08-24T09:04:26.394Z,20.33
2017-08-24T09:05:35.249Z,20.36
2017-08-24T09:06:44.433Z,20.26
2017-08-24T09:07:53.283Z,20.2
2017-08-24T09:09:02.435Z,20.24
2017-08-24T09:10:11.285Z,20.31
2017-08-24T09:11:20.137Z,20.21
2017-08-24T09:12:28.988Z,20.32
2017-08-24T09:13:37.840Z,20.18
2017-08-24T09:14:46.840Z,20.33
2017-08-24T09:15:55.693Z,20.47
2017-08-24T09:17:04.542Z,20.32
2017-08-24T09:18:13.391Z,20.28
2017-08-24T09:19:22.246Z,20.5
2017-08-24T09:20:31.251Z,20.51
2017-08-24T09:21:40.434Z,20.72
2017-08-24T09:22:49.281Z,20.72
2017-08-24T09:23:58.140Z,20.84
2017-08-24T09:25:07.320Z,20.8
2017-08-24T09:26:16.321Z,20.77
2017-08-24T09:27:25.506Z,20.82
2017-08-24T09:28:34.362Z,20.89
2017-08-24T09:29:43.215Z,21.06
2017-08-24T09:30:52.069Z,20.95
2017-08-24T09:32:01.221Z,20.95
2017-08-24T09:33:10.072Z,21.03
2017-08-24T09:34:18.925Z,21.16
2017-08-24T09:35:27.777Z,21.29
2017-08-24T09:36:36.628Z,21.31
2017-08-24T09:37:45.577Z,21.28
2017-08-24T09:38:54.428Z,21.29
2017-08-24T09:40:03.276Z,21.13
2017-08-24T09:41:12.472Z,21.19
2017-08-24T09:42:21.314Z,21.37
2017-08-24T09:43:30.466Z,21.28
2017-08-24T09:44:39.650Z,21.17
2017-08-24T09:45:48.500Z,21.01
2017-08-24T09:46:57.691Z,21.28
2017-08-24T09:48:06.545Z,21.31
2017-08-24T09:49:15.547Z,21.27
2017-08-24T09:50:24.399Z,21.29
2017-08-24T09:51:33.582Z,21.34
2017-08-24T09:52:42.436Z,21.27
2017-08-24T09:53:51.290Z,21.25
2017-08-24T09:55:00.142Z,21.34
2017-08-24T09:56:08.997Z,21.42
2017-08-24T09:57:17.850Z,21.14
2017-08-24T09:58:27.033Z,21.43
2017-08-24T09:59:35.885Z,21.49
2017-08-24T10:00:44.888Z,21.61
2017-08-24T10:01:53.739Z,21.47
2017-08-24T10:03:02.586Z,21.35
2017-08-24T10:04:11.438Z,21.43
2017-08-24T10:05:20.292Z,21.4
2017-08-24T10:06:29.442Z,21.47
2017-08-24T10:07:38.295Z,21.43
2017-08-24T10:08:47.479Z,21.42
2017-08-24T10:09:56.329Z,21.27
2017-08-24T10:11:05.179Z,21.43
2017-08-24T10:12:14.131Z,21.29
2017-08-24T10:13:22.984Z,21.46
2017-08-24T10:14:31.833Z,21.64
2017-08-24T10:15:40.683Z,21.77
2017-08-24T10:16:49.536Z,21.84
2017-08-24T10:17:58.542Z,21.8
2017-08-24T10:19:07.734Z,21.72
2017-08-24T10:20:16.586Z,21.56
2017-08-24T10:21:25.804Z,21.65
2017-08-24T10:22:34.655Z,21.8
2017-08-24T10:23:43.849Z,21.82
2017-08-24T10:24:52.705Z,21.68
2017-08-24T10:26:01.558Z,21.75
2017-08-24T10:27:10.423Z,21.79
2017-08-24T10:28:19.285Z,21.86
2017-08-24T10:29:28.318Z,21.9
2017-08-24T10:30:37.170Z,21.79
2017-08-24T10:31:45.996Z,21.86
2017-08-24T10:32:54.870Z,22.09
2017-08-24T10:34:03.722Z,22.2
2017-08-24T10:35:12.724Z,22.15
2017-08-24T10:36:21.579Z,22.02
2017-08-24T10:37:30.437Z,21.92
2017-08-24T10:38:39.616Z,21.96
2017-08-24T10:39:48.470Z,21.86
2017-08-24T10:40:57.472Z,21.86
2017-08-24T10:42:06.326Z,21.88
2017-08-24T10:43:15.181Z,21.92
2017-08-24T10:44:24.031Z,21.92
2017-08-24T10:45:33.223Z,22
2017-08-24T10:46:42.477Z,22.06
2017-08-24T10:47:51.329Z,22.1
2017-08-24T10:49:00.515Z,22.05
2017-08-24T10:50:09.371Z,22.03
2017-08-24T10:51:18.224Z,22
2017-08-24T10:52:27.177Z,22.07
2017-08-24T10:53:36.027Z,22.05
2017-08-24T10:54:44.883Z,22.18
2017-08-24T10:55:53.735Z,22.06
2017-08-24T10:57:02.589Z,22
2017-08-24T10:58:11.593Z,22.03
2017-08-24T10:59:20.446Z,22.03
2017-08-24T11:00:29.301Z,21.99
2017-08-24T11:01:38.153Z,22.07
2017-08-24T11:02:47.004Z,22.06
2017-08-24T11:03:56.157Z,22.09
2017-08-24T11:05:05.013Z,22
2017-08-24T11:06:14.222Z,21.94
2017-08-24T11:07:23.073Z,21.94
2017-08-24T11:08:31.927Z,21.86
2017-08-24T11:09:40.930Z,21.79
2017-08-24T11:10:49.783Z,21.79
2017-08-24T11:11:58.638Z,21.91
2017-08-24T11:13:07.823Z,21.92
2017-08-24T11:14:16.676Z,21.91
2017-08-24T11:15:25.580Z,21.96
2017-08-24T11:16:34.430Z,21.99
2017-08-24T11:17:43.282Z,21.98
2017-08-24T11:18:52.138Z,21.96
2017-08-24T11:20:00.993Z,21.98
2017-08-24T11:21:10.273Z,22.09
2017-08-24T11:22:19.125Z,22.21
2017-08-24T11:23:27.977Z,22.09
2017-08-24T11:24:37.159Z,22.21
2017-08-24T11:25:46.012Z,22.18
2017-08-24T11:26:55.247Z,22.21
2017-08-24T11:28:04.102Z,22.33
2017-08-24T11:29:12.954Z,22.31
2017-08-24T11:30:21.806Z,22.47
2017-08-24T11:31:30.658Z,22.07
2017-08-24T11:32:39.661Z,22.28
2017-08-24T11:33:48.513Z,22.39
2017-08-24T11:34:57.375Z,22.52
2017-08-24T11:36:06.235Z,22.45
2017-08-24T11:37:15.421Z,22.42
2017-08-24T11:38:24.523Z,22.36
2017-08-24T11:39:33.378Z,22.31
2017-08-24T11:40:42.228Z,22.37
2017-08-24T11:41:51.078Z,22.39
2017-08-24T11:42:59.928Z,22.45
2017-08-24T11:44:08.929Z,22.28
2017-08-24T11:45:17.818Z,22.33
2017-08-24T11:46:26.649Z,22.4
2017-08-24T11:47:35.488Z,22.52
2017-08-24T11:48:44.337Z,22.49
2017-08-24T11:49:53.189Z,22.49
2017-08-24T11:51:02.375Z,22.46
2017-08-24T11:52:11.228Z,22.28
2017-08-24T11:53:20.080Z,22.31
2017-08-24T11:54:28.935Z,22.33
2017-08-24T11:55:37.837Z,22.3
2017-08-24T11:56:47.025Z,22.37
2017-08-24T11:57:55.877Z,22.2
2017-08-24T11:59:04.729Z,22.3
2017-08-24T12:00:13.585Z,22.3
2017-08-24T12:01:22.434Z,22.33
2017-08-24T12:02:31.286Z,22.3
2017-08-24T12:03:40.140Z,22.18
2017-08-24T12:04:49.040Z,22.22
2017-08-24T12:05:58.226Z,22.31
2017-08-24T12:07:07.230Z,22.46
2017-08-24T12:08:16.417Z,22.3
2017-08-24T12:09:25.272Z,22.42
2017-08-24T12:10:34.125Z,22.62
2017-08-24T12:11:43.311Z,22.49
2017-08-24T12:12:52.318Z,22.6
2017-08-24T12:14:01.171Z,22.8
2017-08-24T12:15:10.174Z,22.75
2017-08-24T12:16:19.032Z,22.83
2017-08-24T12:17:27.884Z,22.76
2017-08-24T12:18:36.889Z,23
2017-08-24T12:19:45.740Z,22.92
2017-08-24T12:20:54.593Z,22.98
2017-08-24T12:22:03.448Z,23.02
2017-08-24T12:23:12.304Z,23.16
2017-08-24T12:24:21.643Z,22.95
2017-08-24T12:25:30.501Z,23.25
2017-08-24T12:26:39.360Z,23.23
2017-08-24T12:27:48.215Z,23.39
2017-08-24T12:28:57.071Z,23.17
2017-08-24T12:30:06.078Z,23.19
2017-08-24T12:31:14.932Z,23.04
2017-08-24T12:32:23.789Z,23.38
2017-08-24T12:33:32.645Z,23.36
2017-08-24T12:34:41.506Z,23.65
2017-08-24T12:35:50.608Z,23.31
2017-08-24T12:36:59.466Z,23.38
2017-08-24T12:38:08.320Z,23.36
2017-08-24T12:39:17.174Z,23.25
2017-08-24T12:40:26.028Z,23.1
2017-08-24T12:41:34.983Z,23.1
2017-08-24T12:42:43.840Z,23.22
2017-08-24T12:43:52.694Z,23.22
2017-08-24T12:45:01.544Z,23.2
2017-08-24T12:46:10.426Z,23.13
2017-08-24T12:47:19.262Z,23.13
2017-08-24T12:48:28.118Z,22.98
2017-08-24T12:49:36.974Z,22.97
2017-08-24T12:50:45.829Z,22.97
2017-08-24T12:51:54.682Z,23
2017-08-24T12:53:03.687Z,23.1
2017-08-24T12:54:12.544Z,23.02
2017-08-24T12:55:21.732Z,23.1
2017-08-24T12:56:30.923Z,23.07
2017-08-24T12:57:39.775Z,23.13
2017-08-24T12:58:48.732Z,23.19
2017-08-24T12:59:57.589Z,23.12
2017-08-24T13:01:06.444Z,23.1
2017-08-24T13:02:15.300Z,23.17
2017-08-24T13:03:24.165Z,23.22
2017-08-24T13:04:33.194Z,23.12
2017-08-24T13:05:42.050Z,23.09
2017-08-24T13:06:50.904Z,23.12
2017-08-24T13:07:59.758Z,23.25
2017-08-24T13:09:08.612Z,23.38
2017-08-24T13:10:17.899Z,23.19
2017-08-24T13:11:26.750Z,23.23
2017-08-24T13:12:35.604Z,23.19
2017-08-24T13:13:44.462Z,23.23
2017-08-24T13:14:53.317Z,23.23
2017-08-24T13:16:02.174Z,23.2
2017-08-24T13:17:11.031Z,23.28
2017-08-24T13:18:20.226Z,23.17
2017-08-24T13:19:29.081Z,23.19
2017-08-24T13:20:37.933Z,23.2
2017-08-24T13:21:46.936Z,23.19
2017-08-24T13:22:55.790Z,23.31
2017-08-24T13:24:04.644Z,23.35
2017-08-24T13:25:13.499Z,23.32
2017-08-24T13:26:22.355Z,23.38
2017-08-24T13:27:31.261Z,23.19
2017-08-24T13:28:40.118Z,23.17
2017-08-24T13:29:48.982Z,23.25
2017-08-24T13:30:57.835Z,23.19
2017-08-24T13:32:07.024Z,23.4
2017-08-24T13:33:16.031Z,23.27
2017-08-24T13:34:24.895Z,23.53
2017-08-24T13:35:33.753Z,23.53
2017-08-24T13:36:42.610Z,23.57
2017-08-24T13:37:51.466Z,23.68
2017-08-24T13:39:00.572Z,23.69
2017-08-24T13:40:09.763Z,23.63
2017-08-24T13:41:18.622Z,23.87
2017-08-24T13:42:27.476Z,23.68
2017-08-24T13:43:36.329Z,23.76
2017-08-24T13:44:45.234Z,23.87
2017-08-24T13:45:54.094Z,23.9
2017-08-24T13:47:02.953Z,23.9
2017-08-24T13:48:11.809Z,23.98
2017-08-24T13:49:20.662Z,24.08
2017-08-24T13:50:29.863Z,23.88
2017-08-24T13:51:38.729Z,24.06
2017-08-24T13:52:47.591Z,24.2
2017-08-24T13:53:56.459Z,24.24
2017-08-24T13:55:05.344Z,24.13
2017-08-24T13:56:14.514Z,24.16
2017-08-24T13:57:23.379Z,24.46
2017-08-24T13:58:32.258Z,24.37
2017-08-24T13:59:41.142Z,24.53
2017-08-24T14:00:50.031Z,24.43
2017-08-24T14:01:59.066Z,24.5
2017-08-24T14:03:08.287Z,24.55
2017-08-24T14:04:17.157Z,24.55
2017-08-24T14:05:26.361Z,24.57
2017-08-24T14:06:35.221Z,24.64
2017-08-24T14:07:44.130Z,24.69
2017-08-24T14:08:53.319Z,24.68
2017-08-24T14:10:02.519Z,24.78
2017-08-24T14:11:11.374Z,24.57
2017-08-24T14:12:20.231Z,24.68
2017-08-24T14:13:29.243Z,24.78
2017-08-24T14:14:38.112Z,24.78
2017-08-24T14:15:46.971Z,24.62
2017-08-24T14:16:55.830Z,24.64
2017-08-24T14:18:05.022Z,24.37
2017-08-24T14:19:14.259Z,24.37
2017-08-24T14:20:23.117Z,24.3
2017-08-24T14:21:32.319Z,24.42
2017-08-24T14:22:41.196Z,24.39
2017-08-24T14:23:50.053Z,24.46
2017-08-24T14:24:59.059Z,24.53
2017-08-24T14:26:07.980Z,24.4
2017-08-24T14:27:17.024Z,24.37
2017-08-24T14:28:25.886Z,24.39
2017-08-24T14:29:34.748Z,24.4
2017-08-24T14:30:43.755Z,24.47
2017-08-24T14:31:52.610Z,24.4
2017-08-24T14:33:01.468Z,24.42
2017-08-24T14:34:10.328Z,24.55
2017-08-24T14:35:19.189Z,24.69
2017-08-24T14:36:28.430Z,24.85
2017-08-24T14:37:37.289Z,25.02
2017-08-24T14:38:46.148Z,25
2017-08-24T14:39:55.006Z,25.05
2017-08-24T14:41:03.866Z,25.21
2017-08-24T14:42:13.158Z,25.1
2017-08-24T14:43:22.013Z,25.13
2017-08-24T14:44:30.875Z,25.23
2017-08-24T14:45:39.735Z,25.38
2017-08-24T14:46:48.594Z,25.42
2017-08-24T14:47:57.837Z,25.5
2017-08-24T14:49:06.700Z,25.38
2017-08-24T14:50:15.563Z,25.47
2017-08-24T14:51:24.423Z,25.52
2017-08-24T14:52:33.285Z,25.52
2017-08-24T14:53:42.144Z,25.52
2017-08-24T14:54:51.002Z,25.52
2017-08-24T14:55:59.860Z,25.65
2017-08-24T14:57:08.722Z,25.55